sensor_id;sensor_type;location;lat;lon;timestamp;pressure;altitude;pressure_sealevel;temperature;humidity
33280;BME280;20403;43.114;12.434;2024-01-15T00:01:14;98208.94;;;9.16;100.00
33280;BME280;20403;43.114;12.434;2024-01-15T00:03:39;98204.19;;;9.13;100.00
33280;BME280;20403;43.114;12.434;2024-01-15T00:06:05;98184.75;;;9.15;100.00
33280;BME280;20403;43.114;12.434;2024-01-15T00:08:30;98188.44;;;9.19;100.00
33280;BME280;20403;43.114;12.434;2024-01-15T00:10:56;98185.28;;;9.17;100.00
33280;BME280;20403;43.114;12.434;2024-01-15T00:13:21;98184.41;;;9.12;100.00
33280;BME280;20403;43.114;12.434;2024-01-15T00:15:47;98183.06;;;9.09;100.00
33280;BME280;20403;43.114;12.434;2024-01-15T00:18:12;98167.47;;;9.09;100.00
33280;BME280;20403;43.114;12.434;2024-01-15T00:20:38;98171.09;;;9.08;100.00
33280;BME280;20403;43.114;12.434;2024-01-15T00:23:03;98158.31;;;9.07;100.00
33280;BME280;20403;43.114;12.434;2024-01-15T00:25:28;98152.00;;;9.02;100.00
33280;BME280;20403;43.114;12.434;2024-01-15T00:27:54;98161.84;;;9.00;100.00
33280;BME280;20403;43.114;12.434;2024-01-15T00:30:19;98150.66;;;9.00;100.00
33280;BME280;20403;43.114;12.434;2024-01-15T00:32:45;98153.03;;;9.01;100.00
33280;BME280;20403;43.114;12.434;2024-01-15T00:35:10;98155.16;;;9.04;100.00
33280;BME280;20403;43.114;12.434;2024-01-15T00:37:36;98148.91;;;9.05;100.00
33280;BME280;20403;43.114;12.434;2024-01-15T00:40:01;98150.59;;;9.12;100.00
33280;BME280;20403;43.114;12.434;2024-01-15T00:42:26;98143.44;;;9.19;100.00
33280;BME280;20403;43.114;12.434;2024-01-15T00:44:52;98133.09;;;9.24;100.00
33280;BME280;20403;43.114;12.434;2024-01-15T00:47:19;98135.53;;;9.31;100.00
33280;BME280;20403;43.114;12.434;2024-01-15T00:49:44;98133.75;;;9.31;100.00
33280;BME280;20403;43.114;12.434;2024-01-15T00:52:10;98128.38;;;9.38;100.00
33280;BME280;20403;43.114;12.434;2024-01-15T00:54:35;98127.59;;;9.37;100.00
33280;BME280;20403;43.114;12.434;2024-01-15T00:57:01;98121.81;;;9.35;100.00
33280;BME280;20403;43.114;12.434;2024-01-15T00:59:26;98113.78;;;9.37;100.00
33280;BME280;20403;43.114;12.434;2024-01-15T01:01:52;98109.44;;;9.42;100.00
33280;BME280;20403;43.114;12.434;2024-01-15T01:04:17;98098.81;;;9.44;100.00
33280;BME280;20403;43.114;12.434;2024-01-15T07:34:13;97802.06;;;9.61;100.00
33280;BME280;20403;43.114;12.434;2024-01-15T07:36:38;97816.91;;;9.60;100.00
33280;BME280;20403;43.114;12.434;2024-01-15T07:39:03;97819.75;;;9.59;100.00
33280;BME280;20403;43.114;12.434;2024-01-15T07:41:29;97811.44;;;9.57;100.00
33280;BME280;20403;43.114;12.434;2024-01-15T07:43:55;97810.69;;;9.61;100.00
33280;BME280;20403;43.114;12.434;2024-01-15T07:46:20;97805.78;;;9.70;100.00
33280;BME280;20403;43.114;12.434;2024-01-15T07:48:45;97807.06;;;9.67;100.00
33280;BME280;20403;43.114;12.434;2024-01-15T07:51:11;97808.09;;;9.61;100.00
33280;BME280;20403;43.114;12.434;2024-01-15T07:53:36;97813.22;;;9.56;100.00
33280;BME280;20403;43.114;12.434;2024-01-15T07:56:02;97801.84;;;9.62;100.00
33280;BME280;20403;43.114;12.434;2024-01-15T07:58:27;97807.06;;;9.67;100.00
33280;BME280;20403;43.114;12.434;2024-01-15T08:00:53;97810.81;;;9.77;100.00
33280;BME280;20403;43.114;12.434;2024-01-15T08:03:18;97821.00;;;9.83;100.00
33280;BME280;20403;43.114;12.434;2024-01-15T08:05:44;97819.50;;;9.87;100.00
33280;BME280;20403;43.114;12.434;2024-01-15T08:08:09;97823.41;;;9.90;100.00
33280;BME280;20403;43.114;12.434;2024-01-15T08:10:34;97816.09;;;9.87;100.00
33280;BME280;20403;43.114;12.434;2024-01-15T08:13:00;97824.22;;;9.96;100.00
33280;BME280;20403;43.114;12.434;2024-01-15T08:15:25;97837.25;;;9.96;100.00
33280;BME280;20403;43.114;12.434;2024-01-15T08:17:51;97833.63;;;9.97;100.00
33280;BME280;20403;43.114;12.434;2024-01-15T08:20:16;97841.94;;;9.94;100.00
33280;BME280;20403;43.114;12.434;2024-01-15T08:22:41;97836.19;;;9.92;100.00
33280;BME280;20403;43.114;12.434;2024-01-15T08:25:07;97842.97;;;9.93;100.00
33280;BME280;20403;43.114;12.434;2024-01-15T08:27:34;97846.03;;;9.84;100.00
33280;BME280;20403;43.114;12.434;2024-01-15T08:29:59;97849.41;;;9.85;100.00
33280;BME280;20403;43.114;12.434;2024-01-15T08:32:24;97856.91;;;9.81;100.00
33280;BME280;20403;43.114;12.434;2024-01-15T08:34:50;97857.19;;;9.80;100.00
33280;BME280;20403;43.114;12.434;2024-01-15T08:37:17;97868.38;;;9.80;100.00
33280;BME280;20403;43.114;12.434;2024-01-15T08:39:43;97866.59;;;9.86;100.00
33280;BME280;20403;43.114;12.434;2024-01-15T08:42:09;97871.59;;;9.93;100.00
33280;BME280;20403;43.114;12.434;2024-01-15T08:44:34;97874.75;;;9.95;100.00
33280;BME280;20403;43.114;12.434;2024-01-15T08:47:00;97877.84;;;9.92;100.00
33280;BME280;20403;43.114;12.434;2024-01-15T08:49:25;97891.66;;;9.92;100.00
33280;BME280;20403;43.114;12.434;2024-01-15T08:51:51;97890.59;;;9.93;100.00
33280;BME280;20403;43.114;12.434;2024-01-15T08:54:16;97894.53;;;9.96;100.00
33280;BME280;20403;43.114;12.434;2024-01-15T08:56:43;97893.28;;;9.98;100.00
33280;BME280;20403;43.114;12.434;2024-01-15T08:59:08;97890.75;;;10.08;100.00
33280;BME280;20403;43.114;12.434;2024-01-15T09:01:34;97895.41;;;10.06;100.00
33280;BME280;20403;43.114;12.434;2024-01-15T09:03:59;97904.00;;;10.07;100.00
33280;BME280;20403;43.114;12.434;2024-01-15T09:06:24;97901.66;;;10.05;100.00
33280;BME280;20403;43.114;12.434;2024-01-15T09:08:50;97902.16;;;10.02;100.00
33280;BME280;20403;43.114;12.434;2024-01-15T09:11:15;97913.38;;;10.03;100.00
33280;BME280;20403;43.114;12.434;2024-01-15T09:13:41;97905.78;;;10.01;100.00
33280;BME280;20403;43.114;12.434;2024-01-15T09:16:06;97906.34;;;10.03;100.00
33280;BME280;20403;43.114;12.434;2024-01-15T09:18:32;97895.63;;;10.00;100.00
33280;BME280;20403;43.114;12.434;2024-01-15T09:20:57;97898.03;;;10.06;100.00
33280;BME280;20403;43.114;12.434;2024-01-15T09:23:23;97908.19;;;10.08;100.00
33280;BME280;20403;43.114;12.434;2024-01-15T09:25:48;97897.00;;;10.07;100.00
33280;BME280;20403;43.114;12.434;2024-01-15T09:28:14;97889.47;;;10.11;100.00
33280;BME280;20403;43.114;12.434;2024-01-15T09:33:07;97883.72;;;10.09;100.00
33280;BME280;20403;43.114;12.434;2024-01-15T09:35:32;97871.03;;;10.18;100.00
33280;BME280;20403;43.114;12.434;2024-01-15T09:37:57;97869.75;;;10.20;100.00
33280;BME280;20403;43.114;12.434;2024-01-15T09:40:23;97863.50;;;10.21;100.00
33280;BME280;20403;43.114;12.434;2024-01-15T09:42:49;97875.53;;;10.27;100.00
33280;BME280;20403;43.114;12.434;2024-01-15T09:45:15;97871.19;;;10.33;100.00
33280;BME280;20403;43.114;12.434;2024-01-15T09:47:41;97867.28;;;10.36;100.00
33280;BME280;20403;43.114;12.434;2024-01-15T09:50:10;97870.97;;;10.40;100.00
33280;BME280;20403;43.114;12.434;2024-01-15T09:52:36;97867.06;;;10.42;100.00
33280;BME280;20403;43.114;12.434;2024-01-15T09:55:01;97870.22;;;10.44;100.00
33280;BME280;20403;43.114;12.434;2024-01-15T09:57:28;97867.84;;;10.43;100.00
33280;BME280;20403;43.114;12.434;2024-01-15T09:59:54;97868.38;;;10.40;100.00
33280;BME280;20403;43.114;12.434;2024-01-15T10:02:22;97863.91;;;10.35;100.00
33280;BME280;20403;43.114;12.434;2024-01-15T10:04:48;97848.28;;;10.35;100.00
33280;BME280;20403;43.114;12.434;2024-01-15T10:07:15;97842.00;;;10.36;100.00
33280;BME280;20403;43.114;12.434;2024-01-15T10:09:42;97846.22;;;10.42;100.00
33280;BME280;20403;43.114;12.434;2024-01-15T10:12:09;97847.81;;;10.48;100.00
33280;BME280;20403;43.114;12.434;2024-01-15T10:14:35;97850.28;;;10.65;100.00
33280;BME280;20403;43.114;12.434;2024-01-15T10:17:01;97831.84;;;10.87;100.00
33280;BME280;20403;43.114;12.434;2024-01-15T10:19:36;97838.22;;;11.07;100.00
33280;BME280;20403;43.114;12.434;2024-01-15T10:22:01;97829.16;;;11.35;100.00
33280;BME280;20403;43.114;12.434;2024-01-15T10:24:28;97819.78;;;11.54;100.00
33280;BME280;20403;43.114;12.434;2024-01-15T10:27:05;97811.69;;;11.71;100.00
33280;BME280;20403;43.114;12.434;2024-01-15T10:29:31;97811.22;;;11.90;100.00
33280;BME280;20403;43.114;12.434;2024-01-15T10:31:56;97801.53;;;12.06;100.00
33280;BME280;20403;43.114;12.434;2024-01-15T10:34:22;97801.78;;;12.14;100.00
33280;BME280;20403;43.114;12.434;2024-01-15T10:36:47;97802.31;;;12.22;100.00
33280;BME280;20403;43.114;12.434;2024-01-15T10:39:14;97802.56;;;12.30;100.00
33280;BME280;20403;43.114;12.434;2024-01-15T10:41:40;97798.31;;;12.50;100.00
33280;BME280;20403;43.114;12.434;2024-01-15T10:44:05;97799.34;;;12.59;100.00
33280;BME280;20403;43.114;12.434;2024-01-15T10:46:31;97797.22;;;12.71;100.00
33280;BME280;20403;43.114;12.434;2024-01-15T10:48:58;97797.50;;;12.65;100.00
33280;BME280;20403;43.114;12.434;2024-01-15T10:51:23;97785.25;;;12.55;100.00
33280;BME280;20403;43.114;12.434;2024-01-15T10:53:51;97779.25;;;12.44;100.00
33280;BME280;20403;43.114;12.434;2024-01-15T10:56:17;97775.88;;;12.33;100.00
33280;BME280;20403;43.114;12.434;2024-01-15T10:58:44;97773.31;;;12.23;100.00
33280;BME280;20403;43.114;12.434;2024-01-15T11:01:11;97769.41;;;12.15;100.00
33280;BME280;20403;43.114;12.434;2024-01-15T11:03:37;97756.31;;;12.10;100.00
33280;BME280;20403;43.114;12.434;2024-01-15T11:06:03;97755.03;;;12.03;100.00
33280;BME280;20403;43.114;12.434;2024-01-15T11:08:42;97743.03;;;12.02;100.00
33280;BME280;20403;43.114;12.434;2024-01-15T11:11:07;97743.53;;;12.09;100.00
33280;BME280;20403;43.114;12.434;2024-01-15T11:16:03;97743.53;;;12.04;100.00
33280;BME280;20403;43.114;12.434;2024-01-15T11:18:36;97732.06;;;12.05;100.00
33280;BME280;20403;43.114;12.434;2024-01-15T11:26:32;97728.25;;;12.47;100.00
33280;BME280;20403;43.114;12.434;2024-01-15T11:29:00;97740.06;;;12.39;100.00
33280;BME280;20403;43.114;12.434;2024-01-15T11:34:05;97729.13;;;12.32;100.00
33280;BME280;20403;43.114;12.434;2024-01-15T11:41:54;97731.50;;;12.13;100.00
33280;BME280;20403;43.114;12.434;2024-01-15T11:44:20;97725.75;;;12.16;100.00
33280;BME280;20403;43.114;12.434;2024-01-15T11:47:04;97722.88;;;12.12;100.00
33280;BME280;20403;43.114;12.434;2024-01-15T11:50:02;97714.00;;;12.08;100.00
33280;BME280;20403;43.114;12.434;2024-01-15T11:52:39;97723.44;;;12.04;100.00
33280;BME280;20403;43.114;12.434;2024-01-15T11:55:19;97723.94;;;12.01;100.00
33280;BME280;20403;43.114;12.434;2024-01-15T11:57:51;97734.41;;;11.96;100.00
33280;BME280;20403;43.114;12.434;2024-01-15T12:00:17;97733.34;;;11.87;100.00
33280;BME280;20403;43.114;12.434;2024-01-15T12:02:44;97733.38;;;11.92;100.00
33280;BME280;20403;43.114;12.434;2024-01-15T12:05:15;97724.75;;;11.91;100.00
33280;BME280;20403;43.114;12.434;2024-01-15T12:07:46;97714.56;;;12.00;100.00
33280;BME280;20403;43.114;12.434;2024-01-15T12:10:18;97722.91;;;12.07;100.00
33280;BME280;20403;43.114;12.434;2024-01-15T12:13:00;97717.41;;;12.09;100.00
33280;BME280;20403;43.114;12.434;2024-01-15T12:15:27;97712.72;;;12.11;100.00
33280;BME280;20403;43.114;12.434;2024-01-15T12:18:00;97707.19;;;12.12;100.00
33280;BME280;20403;43.114;12.434;2024-01-15T12:20:28;97693.59;;;12.21;100.00
33280;BME280;20403;43.114;12.434;2024-01-15T12:22:54;97703.25;;;12.25;100.00
33280;BME280;20403;43.114;12.434;2024-01-15T12:25:23;97700.34;;;12.27;100.00
33280;BME280;20403;43.114;12.434;2024-01-15T12:27:49;97694.09;;;12.28;100.00
33280;BME280;20403;43.114;12.434;2024-01-15T12:30:15;97695.13;;;12.27;100.00
33280;BME280;20403;43.114;12.434;2024-01-15T12:32:41;97678.69;;;12.21;100.00
33280;BME280;20403;43.114;12.434;2024-01-15T12:35:08;97678.84;;;12.45;100.00
33280;BME280;20403;43.114;12.434;2024-01-15T12:37:39;97671.72;;;12.61;100.00
33280;BME280;20403;43.114;12.434;2024-01-15T12:40:06;97668.03;;;12.67;100.00
33280;BME280;20403;43.114;12.434;2024-01-15T12:42:39;97663.06;;;12.66;100.00
33280;BME280;20403;43.114;12.434;2024-01-15T12:45:05;97664.09;;;12.70;100.00
33280;BME280;20403;43.114;12.434;2024-01-15T12:47:31;97670.63;;;12.72;100.00
33280;BME280;20403;43.114;12.434;2024-01-15T12:49:58;97665.94;;;12.69;100.00
33280;BME280;20403;43.114;12.434;2024-01-15T12:52:26;97651.03;;;12.70;100.00
33280;BME280;20403;43.114;12.434;2024-01-15T12:54:52;97652.56;;;12.71;100.00
33280;BME280;20403;43.114;12.434;2024-01-15T12:57:17;97648.16;;;12.66;100.00
33280;BME280;20403;43.114;12.434;2024-01-15T12:59:44;97650.75;;;12.66;100.00
33280;BME280;20403;43.114;12.434;2024-01-15T13:02:11;97642.44;;;12.59;100.00
33280;BME280;20403;43.114;12.434;2024-01-15T13:04:37;97629.91;;;12.56;100.00
33280;BME280;20403;43.114;12.434;2024-01-15T13:07:02;97636.72;;;12.57;100.00
33280;BME280;20403;43.114;12.434;2024-01-15T13:09:28;97630.47;;;12.53;100.00
33280;BME280;20403;43.114;12.434;2024-01-15T13:11:55;97636.19;;;12.60;100.00
33280;BME280;20403;43.114;12.434;2024-01-15T13:14:20;97631.94;;;12.69;100.00
33280;BME280;20403;43.114;12.434;2024-01-15T13:16:46;97629.38;;;12.98;100.00
33280;BME280;20403;43.114;12.434;2024-01-15T13:19:12;97619.94;;;13.37;100.00
33280;BME280;20403;43.114;12.434;2024-01-15T13:21:41;97616.25;;;13.67;100.00
33280;BME280;20403;43.114;12.434;2024-01-15T13:24:07;97617.69;;;13.78;100.00
33280;BME280;20403;43.114;12.434;2024-01-15T13:26:35;97615.84;;;13.79;100.00
33280;BME280;20403;43.114;12.434;2024-01-15T13:29:02;97622.03;;;13.88;100.00
33280;BME280;20403;43.114;12.434;2024-01-15T13:31:29;97621.38;;;13.77;100.00
33280;BME280;20403;43.114;12.434;2024-01-15T13:33:55;97617.84;;;13.63;100.00
33280;BME280;20403;43.114;12.434;2024-01-15T13:36:21;97619.03;;;13.52;100.00
33280;BME280;20403;43.114;12.434;2024-01-15T13:38:51;97613.03;;;13.46;100.00
33280;BME280;20403;43.114;12.434;2024-01-15T13:41:17;97609.78;;;13.59;100.00
33280;BME280;20403;43.114;12.434;2024-01-15T13:43:55;97601.16;;;13.59;100.00
33280;BME280;20403;43.114;12.434;2024-01-15T13:46:23;97601.16;;;13.59;100.00
33280;BME280;20403;43.114;12.434;2024-01-15T13:48:49;97594.31;;;13.58;100.00
33280;BME280;20403;43.114;12.434;2024-01-15T13:51:15;97599.34;;;13.54;100.00
33280;BME280;20403;43.114;12.434;2024-01-15T13:53:40;97593.69;;;13.42;100.00
33280;BME280;20403;43.114;12.434;2024-01-15T13:56:06;97588.84;;;13.30;100.00
33280;BME280;20403;43.114;12.434;2024-01-15T13:58:32;97595.41;;;13.28;100.00
33280;BME280;20403;43.114;12.434;2024-01-15T14:00:59;97591.19;;;13.32;100.00
33280;BME280;20403;43.114;12.434;2024-01-15T14:03:24;97598.06;;;13.22;100.00
33280;BME280;20403;43.114;12.434;2024-01-15T14:05:51;97603.66;;;13.11;100.00
33280;BME280;20403;43.114;12.434;2024-01-15T14:08:16;97608.13;;;13.05;100.00
33280;BME280;20403;43.114;12.434;2024-01-15T14:10:42;97602.44;;;12.98;100.00
33280;BME280;20403;43.114;12.434;2024-01-15T14:13:07;97602.22;;;12.89;100.00
33280;BME280;20403;43.114;12.434;2024-01-15T14:15:34;97596.22;;;12.89;100.00
33280;BME280;20403;43.114;12.434;2024-01-15T14:17:59;97590.72;;;12.90;100.00
33280;BME280;20403;43.114;12.434;2024-01-15T14:20:26;97595.41;;;12.93;100.00
33280;BME280;20403;43.114;12.434;2024-01-15T14:22:51;97593.59;;;12.89;100.00
33280;BME280;20403;43.114;12.434;2024-01-15T14:25:17;97594.13;;;12.91;100.00
33280;BME280;20403;43.114;12.434;2024-01-15T14:27:42;97587.59;;;12.88;100.00
33280;BME280;20403;43.114;12.434;2024-01-15T14:30:08;97593.91;;;12.82;100.00
33280;BME280;20403;43.114;12.434;2024-01-15T14:32:34;97595.75;;;12.81;100.00
33280;BME280;20403;43.114;12.434;2024-01-15T14:34:59;97594.19;;;12.80;100.00
33280;BME280;20403;43.114;12.434;2024-01-15T14:37:25;97600.22;;;12.81;100.00
33280;BME280;20403;43.114;12.434;2024-01-15T14:39:50;97598.41;;;12.76;100.00
33280;BME280;20403;43.114;12.434;2024-01-15T14:42:17;97600.50;;;12.74;100.00
33280;BME280;20403;43.114;12.434;2024-01-15T14:44:42;97606.00;;;12.73;100.00
33280;BME280;20403;43.114;12.434;2024-01-15T14:47:08;97600.03;;;12.67;100.00
33280;BME280;20403;43.114;12.434;2024-01-15T14:49:33;97599.56;;;12.60;100.00
33280;BME280;20403;43.114;12.434;2024-01-15T14:51:59;97616.06;;;12.55;100.00
33280;BME280;20403;43.114;12.434;2024-01-15T14:54:24;97614.00;;;12.47;100.00
33280;BME280;20403;43.114;12.434;2024-01-15T14:56:51;97607.56;;;12.34;100.00
33280;BME280;20403;43.114;12.434;2024-01-15T14:59:16;97614.13;;;12.27;100.00
33280;BME280;20403;43.114;12.434;2024-01-15T15:01:42;97612.03;;;12.24;100.00
33280;BME280;20403;43.114;12.434;2024-01-15T15:04:07;97621.22;;;12.16;100.00
33280;BME280;20403;43.114;12.434;2024-01-15T15:06:33;97615.53;;;12.09;100.00
33280;BME280;20403;43.114;12.434;2024-01-15T15:08:59;97606.88;;;12.08;100.00
33280;BME280;20403;43.114;12.434;2024-01-15T15:11:25;97613.69;;;12.09;100.00
33280;BME280;20403;43.114;12.434;2024-01-15T15:13:51;97615.25;;;12.05;100.00
33280;BME280;20403;43.114;12.434;2024-01-15T15:16:16;97616.31;;;11.99;100.00
33280;BME280;20403;43.114;12.434;2024-01-15T15:18:42;97626.00;;;11.93;100.00
33280;BME280;20403;43.114;12.434;2024-01-15T15:21:09;97635.41;;;11.89;100.00
33280;BME280;20403;43.114;12.434;2024-01-15T15:23:35;97635.41;;;11.84;100.00
33280;BME280;20403;43.114;12.434;2024-01-15T15:26:00;97638.56;;;11.81;100.00
33280;BME280;20403;43.114;12.434;2024-01-15T15:28:26;97637.53;;;11.77;100.00
33280;BME280;20403;43.114;12.434;2024-01-15T15:30:51;97638.31;;;11.77;100.00
33280;BME280;20403;43.114;12.434;2024-01-15T15:33:17;97645.91;;;11.74;100.00
33280;BME280;20403;43.114;12.434;2024-01-15T15:35:43;97651.38;;;11.72;100.00
33280;BME280;20403;43.114;12.434;2024-01-15T15:38:09;97652.16;;;11.68;100.00
33280;BME280;20403;43.114;12.434;2024-01-15T15:40:34;97657.66;;;11.61;100.00
33280;BME280;20403;43.114;12.434;2024-01-15T15:42:59;97660.53;;;11.60;100.00
33280;BME280;20403;43.114;12.434;2024-01-15T15:45:25;97661.06;;;11.56;100.00
33280;BME280;20403;43.114;12.434;2024-01-15T15:47:50;97657.91;;;11.60;100.00
33280;BME280;20403;43.114;12.434;2024-01-15T15:50:15;97654.00;;;11.57;100.00
33280;BME280;20403;43.114;12.434;2024-01-15T15:52:41;97664.19;;;11.53;100.00
33280;BME280;20403;43.114;12.434;2024-01-15T15:55:07;97666.03;;;11.53;100.00
33280;BME280;20403;43.114;12.434;2024-01-15T15:57:33;97678.28;;;11.52;100.00
33280;BME280;20403;43.114;12.434;2024-01-15T15:59:58;97667.59;;;11.49;100.00
33280;BME280;20403;43.114;12.434;2024-01-15T16:02:24;97674.66;;;11.48;100.00
33280;BME280;20403;43.114;12.434;2024-01-15T16:04:49;97672.03;;;11.48;100.00
33280;BME280;20403;43.114;12.434;2024-01-15T16:07:14;97672.31;;;11.42;100.00
33280;BME280;20403;43.114;12.434;2024-01-15T16:09:40;97665.78;;;11.39;100.00
33280;BME280;20403;43.114;12.434;2024-01-15T16:12:07;97668.41;;;11.39;100.00
33280;BME280;20403;43.114;12.434;2024-01-15T16:14:33;97669.44;;;11.33;100.00
33280;BME280;20403;43.114;12.434;2024-01-15T16:16:58;97676.72;;;11.31;100.00
33280;BME280;20403;43.114;12.434;2024-01-15T16:19:24;97678.28;;;11.27;100.00
33280;BME280;20403;43.114;12.434;2024-01-15T16:21:50;97671.53;;;11.21;100.00
33280;BME280;20403;43.114;12.434;2024-01-15T16:24:15;97673.34;;;11.15;100.00
33280;BME280;20403;43.114;12.434;2024-01-15T16:26:41;97680.63;;;11.08;100.00
33280;BME280;20403;43.114;12.434;2024-01-15T16:29:06;97676.19;;;11.03;100.00
33280;BME280;20403;43.114;12.434;2024-01-15T16:31:32;97680.34;;;11.04;100.00
33280;BME280;20403;43.114;12.434;2024-01-15T16:33:59;97685.31;;;10.96;100.00
33280;BME280;20403;43.114;12.434;2024-01-15T16:36:24;97675.66;;;10.96;100.00
33280;BME280;20403;43.114;12.434;2024-01-15T16:38:50;97679.06;;;10.97;100.00
33280;BME280;20403;43.114;12.434;2024-01-15T16:41:16;97692.34;;;10.95;100.00
33280;BME280;20403;43.114;12.434;2024-01-15T16:43:41;97687.94;;;10.96;100.00
33280;BME280;20403;43.114;12.434;2024-01-15T16:46:07;97688.97;;;10.94;100.00
33280;BME280;20403;43.114;12.434;2024-01-15T16:48:32;97690.78;;;10.94;100.00
33280;BME280;20403;43.114;12.434;2024-01-15T16:50:58;97686.88;;;10.91;100.00
33280;BME280;20403;43.114;12.434;2024-01-15T16:53:23;97688.72;;;10.91;100.00
33280;BME280;20403;43.114;12.434;2024-01-15T16:55:49;97681.13;;;10.89;100.00
33280;BME280;20403;43.114;12.434;2024-01-15T16:58:14;97688.44;;;10.87;100.00
33280;BME280;20403;43.114;12.434;2024-01-15T17:00:40;97684.78;;;10.88;100.00
33280;BME280;20403;43.114;12.434;2024-01-15T17:03:05;97692.88;;;10.87;100.00
33280;BME280;20403;43.114;12.434;2024-01-15T17:05:31;97701.72;;;10.81;100.00
33280;BME280;20403;43.114;12.434;2024-01-15T17:07:56;97701.97;;;10.79;100.00
33280;BME280;20403;43.114;12.434;2024-01-15T17:10:22;97709.53;;;10.76;100.00
33280;BME280;20403;43.114;12.434;2024-01-15T17:12:50;97716.56;;;10.75;100.00
33280;BME280;20403;43.114;12.434;2024-01-15T17:15:15;97718.91;;;10.77;100.00
33280;BME280;20403;43.114;12.434;2024-01-15T17:17:41;97727.53;;;10.77;100.00
33280;BME280;20403;43.114;12.434;2024-01-15T17:20:07;97724.91;;;10.77;100.00
33280;BME280;20403;43.114;12.434;2024-01-15T17:22:33;97724.69;;;10.84;100.00
33280;BME280;20403;43.114;12.434;2024-01-15T17:24:59;97725.97;;;10.86;100.00
33280;BME280;20403;43.114;12.434;2024-01-15T17:27:24;97721.84;;;10.96;100.00
33280;BME280;20403;43.114;12.434;2024-01-15T17:29:50;97726.78;;;10.97;100.00
33280;BME280;20403;43.114;12.434;2024-01-15T17:32:17;97735.13;;;10.99;100.00
33280;BME280;20403;43.114;12.434;2024-01-15T17:34:42;97737.75;;;11.04;100.00
33280;BME280;20403;43.114;12.434;2024-01-15T17:37:07;97735.66;;;11.01;100.00
33280;BME280;20403;43.114;12.434;2024-01-15T17:39:33;97732.53;;;10.99;100.00
33280;BME280;20403;43.114;12.434;2024-01-15T17:42:01;97729.91;;;10.84;100.00
33280;BME280;20403;43.114;12.434;2024-01-15T17:44:29;97741.09;;;10.79;100.00
33280;BME280;20403;43.114;12.434;2024-01-15T17:46:54;97731.94;;;10.71;100.00
33280;BME280;20403;43.114;12.434;2024-01-15T17:49:20;97733.47;;;10.67;100.00
33280;BME280;20403;43.114;12.434;2024-01-15T17:51:46;97735.06;;;10.68;100.00
33280;BME280;20403;43.114;12.434;2024-01-15T17:54:12;97742.31;;;10.61;100.00
33280;BME280;20403;43.114;12.434;2024-01-15T17:56:37;97748.50;;;10.45;100.00
33280;BME280;20403;43.114;12.434;2024-01-15T17:59:04;97754.72;;;10.39;100.00
33280;BME280;20403;43.114;12.434;2024-01-15T18:01:29;97754.97;;;10.37;100.00
33280;BME280;20403;43.114;12.434;2024-01-15T18:03:56;97761.28;;;10.46;100.00
33280;BME280;20403;43.114;12.434;2024-01-15T18:06:23;97761.31;;;10.51;100.00
33280;BME280;20403;43.114;12.434;2024-01-15T18:08:49;97769.38;;;10.45;100.00
33280;BME280;20403;43.114;12.434;2024-01-15T18:11:15;97769.38;;;10.45;100.00
33280;BME280;20403;43.114;12.434;2024-01-15T18:13:42;97769.59;;;10.38;100.00
33280;BME280;20403;43.114;12.434;2024-01-15T18:16:08;97771.63;;;10.31;100.00
33280;BME280;20403;43.114;12.434;2024-01-15T18:18:33;97773.91;;;10.27;100.00
33280;BME280;20403;43.114;12.434;2024-01-15T18:20:59;97769.75;;;10.26;100.00
33280;BME280;20403;43.114;12.434;2024-01-15T18:23:24;97774.19;;;10.26;100.00
33280;BME280;20403;43.114;12.434;2024-01-15T18:25:51;97777.88;;;10.30;100.00
33280;BME280;20403;43.114;12.434;2024-01-15T18:28:16;97786.72;;;10.29;100.00
33280;BME280;20403;43.114;12.434;2024-01-15T18:30:41;97785.38;;;10.26;100.00
33280;BME280;20403;43.114;12.434;2024-01-15T18:33:07;97786.16;;;10.27;100.00
33280;BME280;20403;43.114;12.434;2024-01-15T18:35:33;97790.59;;;10.26;100.00
33280;BME280;20403;43.114;12.434;2024-01-15T18:37:58;97791.63;;;10.25;100.00
33280;BME280;20403;43.114;12.434;2024-01-15T18:40:24;97803.88;;;10.25;100.00
33280;BME280;20403;43.114;12.434;2024-01-15T18:42:52;97794.75;;;10.27;100.00
33280;BME280;20403;43.114;12.434;2024-01-15T18:45:18;97798.72;;;10.30;100.00
33280;BME280;20403;43.114;12.434;2024-01-15T18:47:46;97806.78;;;10.28;100.00
33280;BME280;20403;43.114;12.434;2024-01-15T18:50:11;97805.16;;;10.22;100.00
33280;BME280;20403;43.114;12.434;2024-01-15T18:52:39;97806.69;;;10.18;100.00
33280;BME280;20403;43.114;12.434;2024-01-15T18:55:05;97799.63;;;10.14;100.00
33280;BME280;20403;43.114;12.434;2024-01-15T18:57:33;97796.25;;;10.13;100.00
33280;BME280;20403;43.114;12.434;2024-01-15T18:59:59;97797.63;;;10.26;100.00
33280;BME280;20403;43.114;12.434;2024-01-15T19:02:24;97800.84;;;10.33;100.00
33280;BME280;20403;43.114;12.434;2024-01-15T19:04:52;97809.41;;;10.28;100.00
33280;BME280;20403;43.114;12.434;2024-01-15T19:07:18;97803.16;;;10.29;100.00
33280;BME280;20403;43.114;12.434;2024-01-15T19:09:43;97802.38;;;10.34;100.00
33280;BME280;20403;43.114;12.434;2024-01-15T19:12:09;97801.59;;;10.34;100.00
33280;BME280;20403;43.114;12.434;2024-01-15T19:14:34;97808.66;;;10.33;100.00
33280;BME280;20403;43.114;12.434;2024-01-15T19:17:00;97821.69;;;10.33;100.00
33280;BME280;20403;43.114;12.434;2024-01-15T19:19:26;97818.53;;;10.31;100.00
33280;BME280;20403;43.114;12.434;2024-01-15T19:21:52;97819.84;;;10.34;100.00
33280;BME280;20403;43.114;12.434;2024-01-15T19:24:17;97822.44;;;10.34;100.00